sensor_id;sensor_type;location;lat;lon;timestamp;P1;durP1;ratioP1;P2;durP2;ratioP2
12412;SDS011;13877;18.896;-99.222;2023-03-24T00:00:08;10.02;;;4.80;;
12412;SDS011;13877;18.896;-99.222;2023-03-24T00:02:40;7.75;;;4.50;;
12412;SDS011;13877;18.896;-99.222;2023-03-24T00:05:10;13.02;;;4.88;;
12412;SDS011;13877;18.896;-99.222;2023-03-24T00:07:40;23.55;;;5.32;;
12412;SDS011;13877;18.896;-99.222;2023-03-24T00:10:10;9.73;;;5.05;;
12412;SDS011;13877;18.896;-99.222;2023-03-24T00:12:40;15.50;;;4.35;;
12412;SDS011;13877;18.896;-99.222;2023-03-24T00:15:09;15.70;;;4.82;;
12412;SDS011;13877;18.896;-99.222;2023-03-24T00:17:38;16.45;;;4.75;;
12412;SDS011;13877;18.896;-99.222;2023-03-24T00:20:06;22.27;;;5.13;;
12412;SDS011;13877;18.896;-99.222;2023-03-24T00:22:46;9.55;;;4.60;;
12412;SDS011;13877;18.896;-99.222;2023-03-24T00:25:19;12.38;;;4.93;;
12412;SDS011;13877;18.896;-99.222;2023-03-24T00:27:53;8.80;;;4.70;;
12412;SDS011;13877;18.896;-99.222;2023-03-24T00:30:22;13.00;;;5.30;;
12412;SDS011;13877;18.896;-99.222;2023-03-24T00:32:50;12.07;;;5.00;;
12412;SDS011;13877;18.896;-99.222;2023-03-24T00:35:18;11.70;;;5.60;;
12412;SDS011;13877;18.896;-99.222;2023-03-24T00:37:45;14.25;;;5.20;;
12412;SDS011;13877;18.896;-99.222;2023-03-24T00:40:13;20.15;;;5.32;;
12412;SDS011;13877;18.896;-99.222;2023-03-24T00:42:43;23.10;;;6.35;;
12412;SDS011;13877;18.896;-99.222;2023-03-24T00:45:13;11.13;;;4.90;;
12412;SDS011;13877;18.896;-99.222;2023-03-24T00:47:44;21.23;;;5.78;;
12412;SDS011;13877;18.896;-99.222;2023-03-24T00:50:15;20.20;;;5.28;;
12412;SDS011;13877;18.896;-99.222;2023-03-24T00:52:45;11.55;;;5.40;;
12412;SDS011;13877;18.896;-99.222;2023-03-24T00:55:15;16.87;;;5.43;;
12412;SDS011;13877;18.896;-99.222;2023-03-24T00:57:43;20.00;;;6.18;;
12412;SDS011;13877;18.896;-99.222;2023-03-24T01:00:19;15.13;;;5.13;;
12412;SDS011;13877;18.896;-99.222;2023-03-24T01:02:49;11.52;;;5.28;;
12412;SDS011;13877;18.896;-99.222;2023-03-24T01:05:26;15.35;;;6.00;;
12412;SDS011;13877;18.896;-99.222;2023-03-24T01:07:55;10.98;;;5.43;;
12412;SDS011;13877;18.896;-99.222;2023-03-24T01:10:32;16.42;;;5.13;;
12412;SDS011;13877;18.896;-99.222;2023-03-24T01:13:16;21.23;;;5.68;;
12412;SDS011;13877;18.896;-99.222;2023-03-24T01:15:43;13.85;;;6.35;;
12412;SDS011;13877;18.896;-99.222;2023-03-24T01:18:11;9.88;;;5.53;;
12412;SDS011;13877;18.896;-99.222;2023-03-24T01:20:39;19.92;;;5.28;;
12412;SDS011;13877;18.896;-99.222;2023-03-24T01:23:14;16.70;;;5.30;;
12412;SDS011;13877;18.896;-99.222;2023-03-24T01:25:47;14.90;;;6.00;;
12412;SDS011;13877;18.896;-99.222;2023-03-24T01:28:19;16.13;;;5.75;;
12412;SDS011;13877;18.896;-99.222;2023-03-24T01:30:52;19.90;;;5.80;;
12412;SDS011;13877;18.896;-99.222;2023-03-24T01:33:19;17.35;;;6.43;;
12412;SDS011;13877;18.896;-99.222;2023-03-24T01:35:47;16.88;;;6.38;;
12412;SDS011;13877;18.896;-99.222;2023-03-24T01:38:15;14.48;;;6.05;;
12412;SDS011;13877;18.896;-99.222;2023-03-24T01:40:43;25.98;;;6.32;;
12412;SDS011;13877;18.896;-99.222;2023-03-24T01:43:22;24.33;;;6.88;;
12412;SDS011;13877;18.896;-99.222;2023-03-24T01:51:16;29.30;;;8.32;;
12412;SDS011;13877;18.896;-99.222;2023-03-24T01:53:58;21.50;;;9.77;;
12412;SDS011;13877;18.896;-99.222;2023-03-24T01:56:48;31.30;;;9.05;;
12412;SDS011;13877;18.896;-99.222;2023-03-24T01:59:21;25.60;;;9.00;;
12412;SDS011;13877;18.896;-99.222;2023-03-24T02:02:07;27.60;;;8.30;;
12412;SDS011;13877;18.896;-99.222;2023-03-24T02:04:48;32.42;;;8.35;;
12412;SDS011;13877;18.896;-99.222;2023-03-24T02:07:36;22.58;;;7.70;;
12412;SDS011;13877;18.896;-99.222;2023-03-24T02:10:10;31.45;;;7.55;;
12412;SDS011;13877;18.896;-99.222;2023-03-24T02:12:40;28.10;;;7.88;;
12412;SDS011;13877;18.896;-99.222;2023-03-24T02:15:10;24.23;;;8.13;;
12412;SDS011;13877;18.896;-99.222;2023-03-24T02:17:50;34.80;;;8.23;;
12412;SDS011;13877;18.896;-99.222;2023-03-24T02:28:42;21.55;;;7.93;;
12412;SDS011;13877;18.896;-99.222;2023-03-24T02:31:41;33.72;;;8.15;;
12412;SDS011;13877;18.896;-99.222;2023-03-24T02:34:23;19.70;;;6.78;;
12412;SDS011;13877;18.896;-99.222;2023-03-24T02:43:01;21.23;;;7.32;;
12412;SDS011;13877;18.896;-99.222;2023-03-24T02:48:26;21.00;;;7.03;;
12412;SDS011;13877;18.896;-99.222;2023-03-24T02:59:10;18.90;;;6.90;;
12412;SDS011;13877;18.896;-99.222;2023-03-24T03:02:12;18.13;;;6.22;;
12412;SDS011;13877;18.896;-99.222;2023-03-24T03:04:51;17.80;;;6.50;;
12412;SDS011;13877;18.896;-99.222;2023-03-24T03:07:23;16.30;;;6.18;;
12412;SDS011;13877;18.896;-99.222;2023-03-24T03:12:33;23.52;;;6.85;;
12412;SDS011;13877;18.896;-99.222;2023-03-24T03:15:18;16.10;;;6.47;;
12412;SDS011;13877;18.896;-99.222;2023-03-24T03:18:00;12.45;;;6.57;;
12412;SDS011;13877;18.896;-99.222;2023-03-24T03:20:45;22.48;;;6.60;;
12412;SDS011;13877;18.896;-99.222;2023-03-24T03:23:24;20.92;;;7.30;;
12412;SDS011;13877;18.896;-99.222;2023-03-24T03:25:59;17.50;;;7.20;;
12412;SDS011;13877;18.896;-99.222;2023-03-24T03:28:34;22.08;;;7.95;;
12412;SDS011;13877;18.896;-99.222;2023-03-24T03:31:05;19.43;;;7.40;;
12412;SDS011;13877;18.896;-99.222;2023-03-24T03:33:44;24.25;;;6.78;;
12412;SDS011;13877;18.896;-99.222;2023-03-24T03:36:25;17.70;;;6.75;;
12412;SDS011;13877;18.896;-99.222;2023-03-24T03:39:11;22.50;;;7.55;;
12412;SDS011;13877;18.896;-99.222;2023-03-24T03:41:41;22.17;;;7.60;;
12412;SDS011;13877;18.896;-99.222;2023-03-24T03:44:08;25.35;;;7.18;;
12412;SDS011;13877;18.896;-99.222;2023-03-24T03:46:36;28.35;;;7.78;;
12412;SDS011;13877;18.896;-99.222;2023-03-24T03:49:07;18.23;;;7.25;;
12412;SDS011;13877;18.896;-99.222;2023-03-24T03:51:35;23.15;;;8.65;;
12412;SDS011;13877;18.896;-99.222;2023-03-24T03:54:02;17.08;;;7.93;;
12412;SDS011;13877;18.896;-99.222;2023-03-24T03:56:34;19.15;;;7.70;;
12412;SDS011;13877;18.896;-99.222;2023-03-24T04:02:13;16.50;;;8.15;;
12412;SDS011;13877;18.896;-99.222;2023-03-24T04:05:06;39.40;;;8.35;;
12412;SDS011;13877;18.896;-99.222;2023-03-24T04:11:05;23.15;;;8.60;;
12412;SDS011;13877;18.896;-99.222;2023-03-24T04:17:18;18.67;;;8.07;;
12412;SDS011;13877;18.896;-99.222;2023-03-24T04:20:10;28.20;;;9.00;;
12412;SDS011;13877;18.896;-99.222;2023-03-24T04:23:00;23.98;;;8.10;;
12412;SDS011;13877;18.896;-99.222;2023-03-24T04:26:00;27.40;;;9.63;;
12412;SDS011;13877;18.896;-99.222;2023-03-24T04:31:25;22.40;;;8.68;;
12412;SDS011;13877;18.896;-99.222;2023-03-24T04:34:19;24.90;;;8.95;;
12412;SDS011;13877;18.896;-99.222;2023-03-24T04:39:44;21.08;;;8.73;;
12412;SDS011;13877;18.896;-99.222;2023-03-24T04:42:19;26.33;;;10.48;;
12412;SDS011;13877;18.896;-99.222;2023-03-24T04:45:04;26.42;;;10.02;;
12412;SDS011;13877;18.896;-99.222;2023-03-24T04:47:55;27.38;;;10.55;;
12412;SDS011;13877;18.896;-99.222;2023-03-24T04:50:37;24.17;;;9.95;;
12412;SDS011;13877;18.896;-99.222;2023-03-24T04:53:13;26.83;;;9.18;;
12412;SDS011;13877;18.896;-99.222;2023-03-24T04:59:00;28.33;;;10.32;;
12412;SDS011;13877;18.896;-99.222;2023-03-24T05:01:27;26.10;;;10.07;;
12412;SDS011;13877;18.896;-99.222;2023-03-24T05:04:15;32.00;;;10.13;;
12412;SDS011;13877;18.896;-99.222;2023-03-24T05:06:43;39.33;;;10.55;;
12412;SDS011;13877;18.896;-99.222;2023-03-24T05:09:18;37.60;;;9.82;;
12412;SDS011;13877;18.896;-99.222;2023-03-24T05:11:46;28.52;;;9.75;;
12412;SDS011;13877;18.896;-99.222;2023-03-24T05:14:15;25.27;;;9.00;;
12412;SDS011;13877;18.896;-99.222;2023-03-24T05:16:43;27.95;;;9.30;;
12412;SDS011;13877;18.896;-99.222;2023-03-24T05:19:10;30.48;;;9.32;;
12412;SDS011;13877;18.896;-99.222;2023-03-24T05:21:38;40.25;;;10.13;;
12412;SDS011;13877;18.896;-99.222;2023-03-24T05:24:06;28.42;;;9.32;;
12412;SDS011;13877;18.896;-99.222;2023-03-24T05:26:35;30.23;;;9.85;;
12412;SDS011;13877;18.896;-99.222;2023-03-24T05:29:09;28.33;;;9.05;;
12412;SDS011;13877;18.896;-99.222;2023-03-24T05:31:38;29.90;;;10.52;;
12412;SDS011;13877;18.896;-99.222;2023-03-24T05:34:09;29.95;;;9.50;;
12412;SDS011;13877;18.896;-99.222;2023-03-24T05:36:49;23.52;;;9.68;;
12412;SDS011;13877;18.896;-99.222;2023-03-24T05:39:19;29.58;;;9.43;;
12412;SDS011;13877;18.896;-99.222;2023-03-24T05:42:00;28.00;;;9.65;;
12412;SDS011;13877;18.896;-99.222;2023-03-24T05:44:28;29.05;;;9.98;;
12412;SDS011;13877;18.896;-99.222;2023-03-24T05:47:03;30.52;;;9.70;;
12412;SDS011;13877;18.896;-99.222;2023-03-24T05:49:30;33.08;;;9.35;;
12412;SDS011;13877;18.896;-99.222;2023-03-24T05:51:58;44.92;;;12.98;;
12412;SDS011;13877;18.896;-99.222;2023-03-24T05:54:25;59.38;;;19.83;;
12412;SDS011;13877;18.896;-99.222;2023-03-24T05:57:01;69.57;;;21.90;;
12412;SDS011;13877;18.896;-99.222;2023-03-24T05:59:34;61.17;;;20.52;;
12412;SDS011;13877;18.896;-99.222;2023-03-24T06:02:03;63.30;;;22.73;;
12412;SDS011;13877;18.896;-99.222;2023-03-24T06:04:52;72.72;;;22.85;;
12412;SDS011;13877;18.896;-99.222;2023-03-24T06:07:23;70.00;;;25.27;;
12412;SDS011;13877;18.896;-99.222;2023-03-24T06:09:52;70.57;;;25.38;;
12412;SDS011;13877;18.896;-99.222;2023-03-24T06:12:23;89.25;;;28.88;;
12412;SDS011;13877;18.896;-99.222;2023-03-24T06:15:01;105.53;;;29.73;;
12412;SDS011;13877;18.896;-99.222;2023-03-24T06:17:32;113.47;;;33.55;;
12412;SDS011;13877;18.896;-99.222;2023-03-24T06:20:05;99.65;;;30.25;;
12412;SDS011;13877;18.896;-99.222;2023-03-24T06:22:54;95.22;;;28.55;;
12412;SDS011;13877;18.896;-99.222;2023-03-24T06:25:27;79.45;;;27.42;;
12412;SDS011;13877;18.896;-99.222;2023-03-24T06:28:09;83.85;;;28.02;;
12412;SDS011;13877;18.896;-99.222;2023-03-24T06:30:38;71.60;;;24.50;;
12412;SDS011;13877;18.896;-99.222;2023-03-24T06:33:21;67.97;;;21.33;;
12412;SDS011;13877;18.896;-99.222;2023-03-24T06:35:52;66.90;;;21.00;;
12412;SDS011;13877;18.896;-99.222;2023-03-24T06:38:19;52.47;;;16.65;;
12412;SDS011;13877;18.896;-99.222;2023-03-24T06:40:47;51.05;;;17.25;;
12412;SDS011;13877;18.896;-99.222;2023-03-24T06:43:14;43.05;;;13.23;;
12412;SDS011;13877;18.896;-99.222;2023-03-24T06:45:44;36.08;;;12.93;;
12412;SDS011;13877;18.896;-99.222;2023-03-24T06:48:17;31.00;;;12.18;;
12412;SDS011;13877;18.896;-99.222;2023-03-24T06:50:45;21.90;;;8.68;;
12412;SDS011;13877;18.896;-99.222;2023-03-24T06:53:12;25.45;;;9.10;;
12412;SDS011;13877;18.896;-99.222;2023-03-24T06:55:40;36.65;;;12.30;;
12412;SDS011;13877;18.896;-99.222;2023-03-24T06:58:08;27.50;;;10.20;;
12412;SDS011;13877;18.896;-99.222;2023-03-24T07:00:53;40.35;;;9.93;;
12412;SDS011;13877;18.896;-99.222;2023-03-24T07:03:56;30.23;;;9.88;;
12412;SDS011;13877;18.896;-99.222;2023-03-24T07:06:31;52.72;;;17.05;;
12412;SDS011;13877;18.896;-99.222;2023-03-24T07:09:09;89.82;;;25.33;;
12412;SDS011;13877;18.896;-99.222;2023-03-24T07:11:37;58.13;;;17.35;;
12412;SDS011;13877;18.896;-99.222;2023-03-24T07:14:04;37.63;;;13.07;;
12412;SDS011;13877;18.896;-99.222;2023-03-24T07:16:34;37.75;;;11.70;;
12412;SDS011;13877;18.896;-99.222;2023-03-24T07:19:23;30.63;;;9.15;;
12412;SDS011;13877;18.896;-99.222;2023-03-24T07:22:07;30.70;;;7.65;;
12412;SDS011;13877;18.896;-99.222;2023-03-24T07:24:54;27.08;;;7.50;;
12412;SDS011;13877;18.896;-99.222;2023-03-24T07:27:46;21.17;;;6.82;;
12412;SDS011;13877;18.896;-99.222;2023-03-24T07:30:13;12.43;;;6.78;;
12412;SDS011;13877;18.896;-99.222;2023-03-24T07:32:43;25.20;;;6.78;;
12412;SDS011;13877;18.896;-99.222;2023-03-24T07:35:10;22.05;;;7.30;;
12412;SDS011;13877;18.896;-99.222;2023-03-24T07:37:38;19.35;;;6.07;;
12412;SDS011;13877;18.896;-99.222;2023-03-24T07:40:06;21.45;;;6.72;;
12412;SDS011;13877;18.896;-99.222;2023-03-24T07:42:37;22.73;;;7.22;;
12412;SDS011;13877;18.896;-99.222;2023-03-24T07:45:32;16.55;;;6.82;;
12412;SDS011;13877;18.896;-99.222;2023-03-24T07:48:00;19.27;;;6.90;;
12412;SDS011;13877;18.896;-99.222;2023-03-24T07:50:30;22.13;;;6.65;;
12412;SDS011;13877;18.896;-99.222;2023-03-24T07:52:58;15.00;;;6.10;;
12412;SDS011;13877;18.896;-99.222;2023-03-24T07:55:25;14.82;;;6.30;;
12412;SDS011;13877;18.896;-99.222;2023-03-24T07:57:57;18.40;;;6.85;;
12412;SDS011;13877;18.896;-99.222;2023-03-24T08:00:26;17.00;;;6.93;;
12412;SDS011;13877;18.896;-99.222;2023-03-24T08:03:09;22.15;;;7.18;;
12412;SDS011;13877;18.896;-99.222;2023-03-24T08:05:39;19.67;;;6.20;;
12412;SDS011;13877;18.896;-99.222;2023-03-24T08:08:25;13.55;;;5.63;;
12412;SDS011;13877;18.896;-99.222;2023-03-24T08:10:52;13.82;;;6.30;;
12412;SDS011;13877;18.896;-99.222;2023-03-24T08:13:18;18.00;;;5.47;;
12412;SDS011;13877;18.896;-99.222;2023-03-24T08:15:45;11.10;;;5.55;;
12412;SDS011;13877;18.896;-99.222;2023-03-24T08:18:12;15.23;;;5.22;;
12412;SDS011;13877;18.896;-99.222;2023-03-24T08:20:40;11.93;;;5.70;;
12412;SDS011;13877;18.896;-99.222;2023-03-24T08:23:07;25.00;;;5.85;;
12412;SDS011;13877;18.896;-99.222;2023-03-24T08:25:34;11.10;;;5.47;;
12412;SDS011;13877;18.896;-99.222;2023-03-24T08:28:02;14.95;;;5.55;;
12412;SDS011;13877;18.896;-99.222;2023-03-24T08:30:29;16.60;;;6.20;;
12412;SDS011;13877;18.896;-99.222;2023-03-24T08:32:58;15.98;;;6.00;;
12412;SDS011;13877;18.896;-99.222;2023-03-24T08:35:27;16.52;;;5.15;;
12412;SDS011;13877;18.896;-99.222;2023-03-24T08:38:03;15.52;;;4.93;;
12412;SDS011;13877;18.896;-99.222;2023-03-24T08:40:30;15.88;;;5.18;;
12412;SDS011;13877;18.896;-99.222;2023-03-24T08:43:00;19.35;;;5.25;;
12412;SDS011;13877;18.896;-99.222;2023-03-24T08:45:29;14.60;;;5.68;;
12412;SDS011;13877;18.896;-99.222;2023-03-24T08:47:58;11.57;;;4.60;;
12412;SDS011;13877;18.896;-99.222;2023-03-24T08:50:29;14.25;;;5.20;;
12412;SDS011;13877;18.896;-99.222;2023-03-24T08:52:59;16.40;;;5.93;;
12412;SDS011;13877;18.896;-99.222;2023-03-24T08:55:27;13.80;;;5.47;;
12412;SDS011;13877;18.896;-99.222;2023-03-24T08:57:54;12.10;;;4.47;;
12412;SDS011;13877;18.896;-99.222;2023-03-24T09:00:22;18.27;;;4.85;;
12412;SDS011;13877;18.896;-99.222;2023-03-24T09:02:51;14.80;;;5.28;;
12412;SDS011;13877;18.896;-99.222;2023-03-24T09:05:19;15.68;;;4.72;;
12412;SDS011;13877;18.896;-99.222;2023-03-24T09:07:48;24.85;;;7.70;;
12412;SDS011;13877;18.896;-99.222;2023-03-24T09:10:16;14.27;;;5.78;;
12412;SDS011;13877;18.896;-99.222;2023-03-24T09:12:43;13.27;;;5.68;;
12412;SDS011;13877;18.896;-99.222;2023-03-24T09:15:11;12.63;;;5.85;;
12412;SDS011;13877;18.896;-99.222;2023-03-24T09:17:39;15.32;;;6.45;;
12412;SDS011;13877;18.896;-99.222;2023-03-24T09:20:07;20.20;;;6.72;;
12412;SDS011;13877;18.896;-99.222;2023-03-24T09:22:37;18.05;;;6.35;;
12412;SDS011;13877;18.896;-99.222;2023-03-24T09:25:05;19.27;;;6.03;;
12412;SDS011;13877;18.896;-99.222;2023-03-24T09:27:33;26.25;;;7.32;;
12412;SDS011;13877;18.896;-99.222;2023-03-24T09:30:00;19.25;;;7.25;;
12412;SDS011;13877;18.896;-99.222;2023-03-24T09:32:28;20.25;;;6.13;;
12412;SDS011;13877;18.896;-99.222;2023-03-24T09:34:55;16.13;;;5.63;;
12412;SDS011;13877;18.896;-99.222;2023-03-24T09:37:22;19.08;;;5.45;;
12412;SDS011;13877;18.896;-99.222;2023-03-24T09:39:49;25.20;;;6.32;;
12412;SDS011;13877;18.896;-99.222;2023-03-24T09:42:22;19.25;;;6.05;;
12412;SDS011;13877;18.896;-99.222;2023-03-24T09:44:54;15.52;;;5.75;;
12412;SDS011;13877;18.896;-99.222;2023-03-24T09:47:37;22.20;;;5.65;;
12412;SDS011;13877;18.896;-99.222;2023-03-24T09:50:15;15.82;;;6.00;;
12412;SDS011;13877;18.896;-99.222;2023-03-24T09:52:50;12.40;;;5.78;;
12412;SDS011;13877;18.896;-99.222;2023-03-24T09:55:25;15.73;;;5.45;;
12412;SDS011;13877;18.896;-99.222;2023-03-24T09:58:03;16.42;;;6.38;;
12412;SDS011;13877;18.896;-99.222;2023-03-24T10:00:35;22.00;;;5.55;;
12412;SDS011;13877;18.896;-99.222;2023-03-24T10:03:21;14.27;;;5.43;;
12412;SDS011;13877;18.896;-99.222;2023-03-24T10:06:35;20.08;;;5.18;;
12412;SDS011;13877;18.896;-99.222;2023-03-24T10:09:09;21.23;;;5.50;;
12412;SDS011;13877;18.896;-99.222;2023-03-24T10:12:01;21.70;;;5.70;;
12412;SDS011;13877;18.896;-99.222;2023-03-24T10:26:03;8.02;;;4.30;;
12412;SDS011;13877;18.896;-99.222;2023-03-24T10:28:51;11.93;;;5.40;;
12412;SDS011;13877;18.896;-99.222;2023-03-24T10:31:39;14.95;;;5.18;;
12412;SDS011;13877;18.896;-99.222;2023-03-24T10:34:10;8.80;;;5.05;;
12412;SDS011;13877;18.896;-99.222;2023-03-24T10:36:39;16.10;;;4.60;;
12412;SDS011;13877;18.896;-99.222;2023-03-24T10:39:10;13.45;;;4.30;;
12412;SDS011;13877;18.896;-99.222;2023-03-24T10:41:40;11.43;;;4.90;;
12412;SDS011;13877;18.896;-99.222;2023-03-24T10:44:09;15.95;;;5.00;;
12412;SDS011;13877;18.896;-99.222;2023-03-24T10:46:42;13.85;;;4.53;;
12412;SDS011;13877;18.896;-99.222;2023-03-24T10:49:16;11.38;;;5.03;;
12412;SDS011;13877;18.896;-99.222;2023-03-24T10:51:46;14.25;;;5.05;;
12412;SDS011;13877;18.896;-99.222;2023-03-24T10:54:27;8.52;;;4.53;;
12412;SDS011;13877;18.896;-99.222;2023-03-24T10:59:31;9.90;;;4.70;;
12412;SDS011;13877;18.896;-99.222;2023-03-24T11:02:25;7.43;;;4.53;;
12412;SDS011;13877;18.896;-99.222;2023-03-24T11:05:00;13.45;;;4.57;;
12412;SDS011;13877;18.896;-99.222;2023-03-24T11:07:38;17.00;;;4.85;;
12412;SDS011;13877;18.896;-99.222;2023-03-24T11:15:20;13.52;;;5.60;;
12412;SDS011;13877;18.896;-99.222;2023-03-24T11:17:56;11.05;;;5.00;;
12412;SDS011;13877;18.896;-99.222;2023-03-24T11:20:33;9.98;;;5.30;;
12412;SDS011;13877;18.896;-99.222;2023-03-24T11:23:03;11.55;;;5.30;;
12412;SDS011;13877;18.896;-99.222;2023-03-24T11:28:42;18.65;;;5.45;;
12412;SDS011;13877;18.896;-99.222;2023-03-24T11:31:19;21.02;;;5.65;;
12412;SDS011;13877;18.896;-99.222;2023-03-24T11:34:12;10.43;;;5.60;;
12412;SDS011;13877;18.896;-99.222;2023-03-24T11:36:42;14.55;;;5.38;;
12412;SDS011;13877;18.896;-99.222;2023-03-24T11:39:19;16.80;;;5.93;;
12412;SDS011;13877;18.896;-99.222;2023-03-24T11:42:02;14.75;;;5.75;;
12412;SDS011;13877;18.896;-99.222;2023-03-24T11:47:07;18.27;;;7.13;;
12412;SDS011;13877;18.896;-99.222;2023-03-24T11:49:37;15.70;;;5.90;;
12412;SDS011;13877;18.896;-99.222;2023-03-24T11:52:23;14.63;;;6.13;;
12412;SDS011;13877;18.896;-99.222;2023-03-24T11:54:55;17.23;;;6.32;;
12412;SDS011;13877;18.896;-99.222;2023-03-24T11:57:38;14.98;;;6.68;;
12412;SDS011;13877;18.896;-99.222;2023-03-24T12:00:26;17.20;;;5.88;;
12412;SDS011;13877;18.896;-99.222;2023-03-24T12:05:57;17.77;;;6.10;;
12412;SDS011;13877;18.896;-99.222;2023-03-24T12:11:14;11.38;;;6.20;;
12412;SDS011;13877;18.896;-99.222;2023-03-24T12:13:47;14.38;;;6.47;;
12412;SDS011;13877;18.896;-99.222;2023-03-24T12:26:54;18.25;;;6.75;;
12412;SDS011;13877;18.896;-99.222;2023-03-24T12:32:27;13.55;;;7.10;;
12412;SDS011;13877;18.896;-99.222;2023-03-24T12:37:38;20.45;;;7.03;;
12412;SDS011;13877;18.896;-99.222;2023-03-24T12:40:52;29.65;;;8.43;;
12412;SDS011;13877;18.896;-99.222;2023-03-24T12:45:38;27.35;;;7.07;;
12412;SDS011;13877;18.896;-99.222;2023-03-24T12:54:05;15.85;;;6.55;;
12412;SDS011;13877;18.896;-99.222;2023-03-24T12:56:50;18.95;;;6.38;;
12412;SDS011;13877;18.896;-99.222;2023-03-24T13:02:15;14.82;;;6.65;;
12412;SDS011;13877;18.896;-99.222;2023-03-24T13:04:48;17.98;;;7.13;;
12412;SDS011;13877;18.896;-99.222;2023-03-24T13:07:19;20.52;;;6.60;;
12412;SDS011;13877;18.896;-99.222;2023-03-24T13:21:02;25.27;;;6.35;;
12412;SDS011;13877;18.896;-99.222;2023-03-24T13:26:09;19.73;;;6.90;;
12412;SDS011;13877;18.896;-99.222;2023-03-24T13:28:54;16.90;;;6.50;;
12412;SDS011;13877;18.896;-99.222;2023-03-24T13:31:43;29.52;;;7.38;;
12412;SDS011;13877;18.896;-99.222;2023-03-24T13:39:55;21.13;;;7.22;;
12412;SDS011;13877;18.896;-99.222;2023-03-24T13:45:00;24.55;;;7.15;;
12412;SDS011;13877;18.896;-99.222;2023-03-24T13:48:32;30.17;;;10.75;;
12412;SDS011;13877;18.896;-99.222;2023-03-24T13:50:27;30.90;;;8.55;;
12412;SDS011;13877;18.896;-99.222;2023-03-24T13:53:02;32.85;;;7.15;;
12412;SDS011;13877;18.896;-99.222;2023-03-24T13:55:36;35.78;;;7.60;;
12412;SDS011;13877;18.896;-99.222;2023-03-24T13:58:07;23.92;;;7.68;;
12412;SDS011;13877;18.896;-99.222;2023-03-24T14:03:37;23.80;;;7.57;;
12412;SDS011;13877;18.896;-99.222;2023-03-24T14:06:14;28.33;;;7.55;;
12412;SDS011;13877;18.896;-99.222;2023-03-24T14:09:04;18.85;;;5.95;;
12412;SDS011;13877;18.896;-99.222;2023-03-24T14:14:10;26.02;;;6.22;;
12412;SDS011;13877;18.896;-99.222;2023-03-24T14:19:43;20.17;;;6.38;;
12412;SDS011;13877;18.896;-99.222;2023-03-24T14:22:44;15.98;;;5.95;;
12412;SDS011;13877;18.896;-99.222;2023-03-24T14:27:40;8.50;;;4.45;;
12412;SDS011;13877;18.896;-99.222;2023-03-24T14:30:13;17.08;;;5.35;;
12412;SDS011;13877;18.896;-99.222;2023-03-24T14:32:45;12.80;;;5.25;;
12412;SDS011;13877;18.896;-99.222;2023-03-24T14:35:33;12.60;;;5.65;;
12412;SDS011;13877;18.896;-99.222;2023-03-24T14:40:43;15.90;;;5.22;;
12412;SDS011;13877;18.896;-99.222;2023-03-24T14:48:54;12.82;;;4.72;;
12412;SDS011;13877;18.896;-99.222;2023-03-24T14:51:53;14.93;;;4.90;;
12412;SDS011;13877;18.896;-99.222;2023-03-24T14:54:32;15.95;;;5.55;;
12412;SDS011;13877;18.896;-99.222;2023-03-24T14:57:00;14.05;;;5.05;;
12412;SDS011;13877;18.896;-99.222;2023-03-24T14:59:31;8.77;;;4.90;;
12412;SDS011;13877;18.896;-99.222;2023-03-24T15:02:10;13.75;;;4.65;;
12412;SDS011;13877;18.896;-99.222;2023-03-24T15:07:43;13.98;;;4.05;;
12412;SDS011;13877;18.896;-99.222;2023-03-24T15:10:25;14.80;;;4.80;;
12412;SDS011;13877;18.896;-99.222;2023-03-24T15:12:57;10.02;;;4.47;;
12412;SDS011;13877;18.896;-99.222;2023-03-24T15:15:24;12.40;;;5.28;;
12412;SDS011;13877;18.896;-99.222;2023-03-24T15:17:51;19.15;;;4.03;;
12412;SDS011;13877;18.896;-99.222;2023-03-24T15:20:24;12.38;;;4.90;;
12412;SDS011;13877;18.896;-99.222;2023-03-24T15:22:54;14.93;;;4.32;;
12412;SDS011;13877;18.896;-99.222;2023-03-24T15:25:25;10.50;;;4.53;;
12412;SDS011;13877;18.896;-99.222;2023-03-24T15:27:55;7.25;;;4.25;;
12412;SDS011;13877;18.896;-99.222;2023-03-24T15:30:22;8.75;;;4.15;;
12412;SDS011;13877;18.896;-99.222;2023-03-24T15:32:50;8.63;;;4.57;;
12412;SDS011;13877;18.896;-99.222;2023-03-24T15:35:19;9.45;;;4.32;;
12412;SDS011;13877;18.896;-99.222;2023-03-24T15:37:51;9.80;;;4.03;;
12412;SDS011;13877;18.896;-99.222;2023-03-24T15:42:53;14.73;;;3.70;;
12412;SDS011;13877;18.896;-99.222;2023-03-24T15:46:04;5.10;;;3.50;;
12412;SDS011;13877;18.896;-99.222;2023-03-24T15:48:17;9.02;;;3.85;;
12412;SDS011;13877;18.896;-99.222;2023-03-24T15:51:09;14.77;;;4.43;;
12412;SDS011;13877;18.896;-99.222;2023-03-24T15:53:41;7.38;;;3.65;;
12412;SDS011;13877;18.896;-99.222;2023-03-24T15:56:18;10.52;;;3.80;;
12412;SDS011;13877;18.896;-99.222;2023-03-24T16:01:34;8.85;;;4.60;;
12412;SDS011;13877;18.896;-99.222;2023-03-24T16:04:06;13.13;;;3.90;;
12412;SDS011;13877;18.896;-99.222;2023-03-24T16:06:41;9.25;;;4.20;;
12412;SDS011;13877;18.896;-99.222;2023-03-24T16:09:14;13.38;;;4.53;;
12412;SDS011;13877;18.896;-99.222;2023-03-24T16:11:47;15.40;;;4.30;;
12412;SDS011;13877;18.896;-99.222;2023-03-24T16:16:55;20.43;;;4.57;;
12412;SDS011;13877;18.896;-99.222;2023-03-24T16:19:29;11.63;;;4.30;;
12412;SDS011;13877;18.896;-99.222;2023-03-24T16:21:57;13.85;;;4.80;;
12412;SDS011;13877;18.896;-99.222;2023-03-24T16:24:24;10.88;;;4.60;;
12412;SDS011;13877;18.896;-99.222;2023-03-24T16:26:51;18.13;;;4.43;;
12412;SDS011;13877;18.896;-99.222;2023-03-24T16:29:20;10.77;;;4.78;;
12412;SDS011;13877;18.896;-99.222;2023-03-24T16:31:49;19.65;;;7.32;;
12412;SDS011;13877;18.896;-99.222;2023-03-24T16:34:24;22.90;;;8.68;;
12412;SDS011;13877;18.896;-99.222;2023-03-24T16:36:52;20.98;;;8.05;;
12412;SDS011;13877;18.896;-99.222;2023-03-24T16:39:20;22.23;;;7.97;;
12412;SDS011;13877;18.896;-99.222;2023-03-24T16:41:49;18.85;;;7.57;;
12412;SDS011;13877;18.896;-99.222;2023-03-24T16:44:16;14.55;;;6.85;;
12412;SDS011;13877;18.896;-99.222;2023-03-24T16:46:44;13.77;;;6.03;;
12412;SDS011;13877;18.896;-99.222;2023-03-24T16:49:13;21.48;;;6.40;;
12412;SDS011;13877;18.896;-99.222;2023-03-24T16:51:42;17.45;;;5.82;;
12412;SDS011;13877;18.896;-99.222;2023-03-24T16:54:10;16.33;;;6.32;;
12412;SDS011;13877;18.896;-99.222;2023-03-24T16:56:37;15.50;;;6.20;;
12412;SDS011;13877;18.896;-99.222;2023-03-24T16:59:06;13.18;;;6.10;;
12412;SDS011;13877;18.896;-99.222;2023-03-24T17:01:34;14.32;;;6.43;;
12412;SDS011;13877;18.896;-99.222;2023-03-24T17:04:13;17.42;;;5.53;;
12412;SDS011;13877;18.896;-99.222;2023-03-24T17:06:49;10.00;;;5.40;;
12412;SDS011;13877;18.896;-99.222;2023-03-24T17:09:19;25.00;;;4.93;;
12412;SDS011;13877;18.896;-99.222;2023-03-24T17:11:47;12.13;;;4.95;;
12412;SDS011;13877;18.896;-99.222;2023-03-24T17:14:20;22.38;;;5.40;;
12412;SDS011;13877;18.896;-99.222;2023-03-24T17:16:47;11.00;;;4.82;;
12412;SDS011;13877;18.896;-99.222;2023-03-24T17:19:16;17.10;;;5.68;;
12412;SDS011;13877;18.896;-99.222;2023-03-24T17:24:24;14.23;;;5.65;;
12412;SDS011;13877;18.896;-99.222;2023-03-24T17:26:51;9.88;;;5.43;;
12412;SDS011;13877;18.896;-99.222;2023-03-24T17:29:19;12.27;;;5.35;;
12412;SDS011;13877;18.896;-99.222;2023-03-24T17:31:47;23.08;;;5.80;;